createdAt,value
2022-08-24T00:01:18.757Z,17.63
2022-08-24T00:03:48.421Z,16.20
2022-08-24T00:06:24.934Z,13.43
2022-08-24T00:08:54.867Z,33.43
2022-08-24T00:11:23.606Z,19.37
2022-08-24T00:13:53.133Z,21.63
2022-08-24T00:16:25.606Z,16.77
2022-08-24T00:18:54.951Z,22.60
2022-08-24T00:21:24.060Z,15.63
2022-08-24T00:23:52.589Z,18.10
2022-08-24T00:26:28.716Z,19.43
2022-08-24T00:28:58.248Z,14.90
2022-08-24T00:31:28.379Z,15.93
2022-08-24T00:33:57.104Z,13.70
2022-08-24T00:36:25.945Z,13.30
2022-08-24T00:38:55.172Z,14.33
2022-08-24T00:41:24.364Z,14.63
2022-08-24T00:43:55.512Z,16.27
2022-08-24T00:46:28.951Z,18.77
2022-08-24T00:49:04.007Z,19.90
2022-08-24T00:51:37.678Z,17.97
2022-08-24T00:54:10.480Z,18.50
2022-08-24T00:56:43.851Z,26.60
2022-08-24T00:59:16.060Z,27.00
2022-08-24T01:01:47.546Z,21.07
2022-08-24T01:04:22.668Z,25.43
2022-08-24T01:06:51.333Z,21.23
2022-08-24T01:09:19.928Z,25.40
2022-08-24T01:11:49.842Z,17.83
2022-08-24T01:14:19.787Z,18.83
2022-08-24T01:17:07.021Z,24.40
2022-08-24T01:19:39.481Z,19.83
2022-08-24T01:22:22.447Z,18.00
2022-08-24T01:24:52.628Z,23.63
2022-08-24T01:27:24.863Z,27.43
2022-08-24T01:29:59.535Z,18.83
2022-08-24T01:32:29.566Z,24.53
2022-08-24T01:34:58.609Z,29.07
2022-08-24T01:37:27.298Z,19.17
2022-08-24T01:39:59.222Z,18.07
2022-08-24T01:42:29.917Z,19.60
2022-08-24T01:44:58.589Z,22.33
2022-08-24T01:47:27.407Z,23.00
2022-08-24T01:49:55.970Z,21.40
2022-08-24T01:52:29.707Z,22.83
2022-08-24T01:55:07.999Z,19.03
2022-08-24T01:57:36.569Z,24.93
2022-08-24T02:00:09.499Z,19.90
2022-08-24T02:02:38.539Z,28.47
2022-08-24T02:05:07.676Z,24.33
2022-08-24T02:07:36.232Z,19.10
2022-08-24T02:10:07.357Z,18.43
2022-08-24T02:12:36.147Z,18.60
2022-08-24T02:15:06.301Z,23.77
2022-08-24T02:17:34.955Z,21.03
2022-08-24T02:20:04.767Z,21.37
2022-08-24T02:22:33.336Z,19.10
2022-08-24T02:25:01.900Z,20.80
2022-08-24T02:27:32.552Z,24.83
2022-08-24T02:30:01.057Z,18.03
2022-08-24T02:32:29.668Z,27.73
2022-08-24T02:34:58.210Z,25.63
2022-08-24T02:37:26.793Z,23.17
2022-08-24T02:39:55.386Z,25.53
2022-08-24T02:42:24.005Z,25.90
2022-08-24T02:44:55.217Z,29.60
2022-08-24T02:47:23.728Z,29.10
2022-08-24T02:50:08.902Z,22.77
2022-08-24T02:52:39.426Z,24.47
2022-08-24T02:55:10.157Z,26.43
2022-08-24T02:57:38.905Z,34.07
2022-08-24T03:00:13.007Z,26.60
2022-08-24T03:02:42.391Z,25.97
2022-08-24T03:05:11.359Z,23.40
2022-08-24T03:07:39.902Z,23.47
2022-08-24T03:10:10.870Z,28.40
2022-08-24T03:12:40.755Z,28.77
2022-08-24T03:15:14.984Z,32.77
2022-08-24T03:17:45.414Z,29.03
2022-08-24T03:20:22.145Z,30.10
2022-08-24T03:22:51.017Z,29.30
2022-08-24T03:25:25.184Z,24.17
2022-08-24T03:27:54.814Z,28.93
2022-08-24T03:30:27.425Z,26.50
2022-08-24T03:32:56.915Z,24.97
2022-08-24T03:35:25.715Z,21.23
2022-08-24T03:37:54.789Z,23.93
2022-08-24T03:40:26.864Z,21.83
2022-08-24T03:42:55.786Z,21.83
2022-08-24T03:45:26.142Z,28.70
2022-08-24T03:47:55.800Z,18.33
2022-08-24T03:50:25.403Z,23.13
2022-08-24T03:52:54.068Z,43.90
2022-08-24T03:55:23.155Z,30.53
2022-08-24T03:57:53.588Z,20.33
2022-08-24T04:00:22.840Z,28.47
2022-08-24T04:02:53.947Z,21.50
2022-08-24T04:05:23.100Z,19.57
2022-08-24T04:07:52.672Z,20.97
2022-08-24T04:10:21.374Z,24.53
2022-08-24T04:12:50.033Z,25.77
2022-08-24T04:15:25.132Z,22.00
2022-08-24T04:17:55.794Z,20.20
2022-08-24T04:20:26.930Z,26.23
2022-08-24T04:22:57.968Z,22.37
2022-08-24T04:25:26.767Z,29.67
2022-08-24T04:27:56.126Z,26.30
2022-08-24T04:30:26.123Z,35.80
2022-08-24T04:32:56.092Z,23.43
2022-08-24T04:35:25.165Z,26.47
2022-08-24T04:37:53.694Z,37.57
2022-08-24T04:40:22.668Z,26.83
2022-08-24T04:42:51.777Z,26.60
2022-08-24T04:45:20.501Z,30.30
2022-08-24T04:47:49.377Z,25.70
2022-08-24T04:50:19.760Z,23.27
2022-08-24T04:52:48.403Z,29.47
2022-08-24T04:55:17.791Z,25.30
2022-08-24T04:57:46.371Z,27.60
2022-08-24T05:00:15.813Z,25.00
2022-08-24T05:02:45.162Z,23.53
2022-08-24T05:05:14.431Z,28.17
2022-08-24T05:07:45.048Z,35.20
2022-08-24T05:10:15.212Z,22.87
2022-08-24T05:12:48.417Z,23.47
2022-08-24T05:15:17.758Z,27.80
2022-08-24T05:17:50.983Z,22.20
2022-08-24T05:20:21.232Z,18.53
2022-08-24T05:22:55.926Z,15.80
2022-08-24T05:25:26.201Z,24.23
2022-08-24T05:27:55.534Z,20.27
2022-08-24T05:33:25.105Z,14.73
2022-08-24T05:35:58.086Z,17.30
2022-08-24T05:38:28.115Z,16.23
2022-08-24T05:43:41.221Z,13.37
2022-08-24T05:46:16.462Z,17.00
2022-08-24T05:49:10.010Z,14.63
2022-08-24T05:51:45.743Z,16.93
2022-08-24T05:54:35.889Z,14.27
2022-08-24T05:57:12.107Z,18.53
2022-08-24T06:00:11.563Z,17.43
2022-08-24T06:02:53.176Z,17.93
2022-08-24T06:05:23.458Z,16.40
2022-08-24T06:08:01.175Z,17.73
2022-08-24T06:10:36.674Z,19.17
2022-08-24T06:13:13.170Z,14.47
2022-08-24T06:16:21.508Z,20.83
2022-08-24T06:19:20.535Z,12.83
2022-08-24T06:22:00.376Z,20.50
2022-08-24T06:24:58.884Z,17.90
2022-08-24T06:27:49.214Z,24.33
2022-08-24T06:30:54.038Z,12.83
2022-08-24T06:33:53.646Z,15.73
2022-08-24T06:36:23.480Z,15.20
2022-08-24T06:39:22.997Z,18.17
2022-08-24T06:42:16.548Z,14.70
2022-08-24T06:44:56.006Z,16.50
2022-08-24T06:47:42.891Z,18.40
2022-08-24T06:50:24.394Z,23.10
2022-08-24T06:53:01.890Z,20.37
2022-08-24T06:55:48.477Z,17.80
2022-08-24T06:58:25.517Z,15.13
2022-08-24T07:01:00.637Z,23.53
2022-08-24T07:03:37.517Z,19.00
2022-08-24T07:06:26.405Z,19.30
2022-08-24T07:09:22.544Z,22.10
2022-08-24T07:12:10.316Z,18.27
2022-08-24T07:14:53.691Z,15.60
2022-08-24T07:17:34.799Z,18.63
2022-08-24T07:20:11.595Z,15.50
2022-08-24T07:22:43.595Z,15.43
2022-08-24T07:25:30.193Z,22.57
2022-08-24T07:28:00.862Z,18.30
2022-08-24T07:30:31.269Z,21.70
2022-08-24T07:33:00.348Z,15.97
2022-08-24T07:35:33.286Z,18.03
2022-08-24T07:38:03.879Z,21.10
2022-08-24T07:40:48.760Z,20.03
2022-08-24T07:43:25.260Z,15.63
2022-08-24T07:45:54.369Z,15.33
2022-08-24T07:48:24.618Z,15.70
2022-08-24T07:50:54.798Z,16.13
2022-08-24T07:53:27.828Z,14.90
2022-08-24T07:56:01.104Z,15.30
2022-08-24T07:58:31.324Z,14.93
2022-08-24T08:01:00.820Z,15.70
2022-08-24T08:03:32.136Z,17.47
2022-08-24T08:06:04.824Z,17.50
2022-08-24T08:08:35.938Z,11.03
2022-08-24T08:11:04.972Z,10.77
2022-08-24T08:13:36.085Z,20.10
2022-08-24T08:16:08.557Z,12.87
2022-08-24T08:18:37.791Z,17.37
2022-08-24T08:21:27.083Z,16.37
2022-08-24T08:24:13.958Z,10.27
2022-08-24T08:26:44.400Z,7.77
2022-08-24T08:29:15.522Z,9.30
2022-08-24T08:31:45.561Z,16.30
2022-08-24T08:34:15.336Z,12.60
2022-08-24T08:36:45.724Z,8.53
2022-08-24T08:39:16.256Z,9.40
2022-08-24T08:42:12.783Z,10.27
2022-08-24T08:45:00.585Z,11.80
2022-08-24T08:50:41.281Z,13.90
2022-08-24T08:53:51.613Z,11.33
2022-08-24T08:56:30.958Z,16.27
2022-08-24T08:59:07.599Z,12.30
2022-08-24T09:01:49.241Z,11.57
2022-08-24T09:04:52.217Z,16.27
2022-08-24T09:07:43.635Z,12.23
2022-08-24T09:10:37.135Z,12.60
2022-08-24T09:13:24.667Z,15.63
2022-08-24T09:16:18.402Z,14.63
2022-08-24T09:19:00.237Z,19.87
2022-08-24T09:22:03.388Z,15.17
2022-08-24T09:25:18.090Z,11.90
2022-08-24T09:28:06.556Z,6.40
2022-08-24T09:31:04.810Z,10.17
2022-08-24T09:33:48.931Z,8.93
2022-08-24T09:36:37.195Z,13.57
2022-08-24T09:39:28.164Z,9.73
2022-08-24T09:42:42.507Z,18.93
2022-08-24T09:45:47.656Z,13.20
2022-08-24T09:49:05.129Z,8.50
2022-08-24T09:52:08.588Z,14.50
2022-08-24T09:55:28.116Z,8.57
2022-08-24T09:58:24.733Z,7.93
2022-08-24T10:01:08.668Z,8.53
2022-08-24T10:04:00.944Z,14.63
2022-08-24T10:06:40.150Z,9.80
2022-08-24T10:09:49.856Z,9.20
2022-08-24T10:12:38.328Z,19.20
2022-08-24T10:15:14.338Z,7.83
2022-08-24T10:18:10.260Z,6.90
2022-08-24T10:21:11.235Z,15.60
2022-08-24T10:24:00.725Z,7.03
2022-08-24T10:26:45.913Z,10.07
2022-08-24T10:29:41.810Z,8.80
2022-08-24T10:32:24.787Z,9.13
2022-08-24T10:35:10.472Z,17.00
2022-08-24T10:38:29.248Z,12.17
2022-08-24T10:41:39.320Z,10.23
2022-08-24T10:44:53.093Z,8.03
2022-08-24T10:47:31.727Z,9.70
2022-08-24T10:50:20.663Z,13.13
2022-08-24T10:53:07.919Z,11.17
2022-08-24T10:55:37.866Z,9.13
2022-08-24T10:58:29.621Z,8.93
2022-08-24T11:01:15.794Z,8.97
2022-08-24T11:03:52.596Z,7.90
2022-08-24T11:06:24.472Z,11.23
2022-08-24T11:08:56.955Z,6.80
2022-08-24T11:11:28.470Z,7.57
2022-08-24T11:14:00.328Z,11.80
2022-08-24T11:16:36.027Z,9.90
2022-08-24T11:19:09.667Z,14.63
2022-08-24T11:21:46.035Z,13.07
2022-08-24T11:24:27.773Z,12.43
2022-08-24T11:26:59.536Z,10.13
2022-08-24T11:29:31.542Z,8.87
2022-08-24T11:32:02.217Z,10.70
2022-08-24T11:34:38.741Z,11.23
2022-08-24T11:37:16.033Z,11.90
2022-08-24T11:39:45.051Z,9.80
2022-08-24T11:42:27.427Z,9.00
2022-08-24T11:45:09.091Z,8.80
2022-08-24T11:48:05.697Z,9.57
2022-08-24T11:50:57.928Z,15.67
2022-08-24T11:54:02.925Z,11.33
2022-08-24T11:57:02.503Z,11.63
2022-08-24T11:59:50.346Z,9.63
2022-08-24T12:02:28.615Z,9.90
2022-08-24T12:05:10.357Z,15.43
2022-08-24T12:07:56.446Z,20.53
2022-08-24T12:10:38.935Z,9.73
2022-08-24T12:16:36.761Z,9.50
2022-08-24T12:19:27.400Z,8.60
2022-08-24T12:25:25.432Z,12.40
2022-08-24T12:28:05.697Z,8.10
2022-08-24T12:30:50.564Z,10.13
2022-08-24T12:33:40.678Z,9.77
2022-08-24T12:36:21.744Z,8.70
2022-08-24T12:39:07.689Z,10.60
2022-08-24T12:41:43.176Z,22.30
2022-08-24T12:44:35.853Z,12.77
2022-08-24T12:47:16.682Z,21.00
2022-08-24T12:50:00.272Z,15.40
2022-08-24T12:53:09.024Z,11.90
2022-08-24T12:56:07.252Z,8.10
2022-08-24T12:58:58.751Z,8.43
2022-08-24T13:01:33.824Z,10.10
2022-08-24T13:04:17.163Z,7.40
2022-08-24T13:06:54.239Z,8.93
2022-08-24T13:09:33.054Z,8.53
2022-08-24T13:12:50.778Z,11.03
2022-08-24T13:15:29.691Z,8.87
2022-08-24T13:18:03.136Z,13.30
2022-08-24T13:20:56.841Z,10.97
2022-08-24T13:23:27.440Z,10.63
2022-08-24T13:25:59.485Z,7.70
2022-08-24T13:28:46.844Z,7.37
2022-08-24T13:31:28.753Z,9.63
2022-08-24T13:34:01.294Z,13.43
2022-08-24T13:37:11.249Z,10.87
2022-08-24T13:40:01.542Z,10.17
2022-08-24T13:43:04.346Z,15.13
2022-08-24T13:45:37.914Z,15.33
2022-08-24T13:48:28.332Z,9.23
2022-08-24T13:51:21.794Z,10.20
2022-08-24T13:54:03.827Z,9.87
2022-08-24T13:56:45.687Z,15.00
2022-08-24T13:59:22.515Z,13.30
2022-08-24T14:02:04.225Z,12.90
2022-08-24T14:04:44.628Z,9.20
2022-08-24T14:07:21.001Z,17.93
2022-08-24T14:10:02.768Z,13.17
2022-08-24T14:12:51.213Z,8.40
2022-08-24T14:15:27.269Z,14.30
2022-08-24T14:18:09.437Z,11.83
2022-08-24T14:20:58.895Z,22.33
2022-08-24T14:23:36.592Z,14.37
2022-08-24T14:26:40.212Z,11.53
2022-08-24T14:29:32.333Z,11.33
2022-08-24T14:32:49.097Z,13.70
2022-08-24T14:35:37.364Z,12.27
2022-08-24T14:38:31.082Z,16.57
2022-08-24T14:41:17.201Z,11.47
2022-08-24T14:44:29.016Z,16.60
2022-08-24T14:47:06.904Z,13.30
2022-08-24T14:49:49.149Z,12.67
2022-08-24T14:52:40.653Z,11.80
2022-08-24T14:55:17.390Z,11.83
2022-08-24T14:58:06.294Z,11.33
2022-08-24T15:01:07.910Z,11.30
2022-08-24T15:03:59.663Z,9.77
2022-08-24T15:06:37.495Z,9.27
2022-08-24T15:09:21.188Z,13.73
2022-08-24T15:11:51.371Z,14.03
2022-08-24T15:14:33.783Z,12.20
2022-08-24T15:17:10.536Z,14.53
2022-08-24T15:19:51.380Z,12.70
2022-08-24T15:22:30.321Z,21.40
2022-08-24T15:25:11.347Z,21.63
2022-08-24T15:27:46.749Z,15.53
2022-08-24T15:30:27.194Z,14.23
2022-08-24T15:33:05.341Z,12.50
2022-08-24T15:35:48.730Z,22.17
2022-08-24T15:38:25.159Z,12.27
2022-08-24T15:41:06.976Z,22.97
2022-08-24T15:43:37.924Z,20.63
2022-08-24T15:46:07.391Z,15.03
2022-08-24T15:48:37.228Z,15.03
2022-08-24T15:51:06.540Z,17.30
2022-08-24T15:53:37.989Z,21.30
2022-08-24T15:56:35.463Z,13.30
2022-08-24T15:59:13.907Z,17.00
2022-08-24T16:01:59.761Z,14.67
2022-08-24T16:04:47.654Z,25.97
2022-08-24T16:07:23.570Z,15.27
2022-08-24T16:10:04.800Z,21.83
2022-08-24T16:12:34.835Z,15.27
2022-08-24T16:15:20.684Z,14.90
2022-08-24T16:17:51.736Z,16.53
2022-08-24T16:20:33.456Z,19.87
2022-08-24T16:23:04.727Z,15.90
2022-08-24T16:25:38.702Z,22.90
2022-08-24T16:28:13.961Z,14.30
2022-08-24T16:30:50.007Z,18.23
2022-08-24T16:33:43.516Z,15.03
2022-08-24T16:36:15.593Z,13.80
2022-08-24T16:38:49.081Z,18.47
2022-08-24T16:41:19.640Z,17.57
2022-08-24T16:43:50.415Z,14.33
2022-08-24T16:46:22.322Z,19.03
2022-08-24T16:48:51.601Z,18.73
2022-08-24T16:51:20.381Z,15.13
2022-08-24T16:53:49.602Z,20.93
2022-08-24T16:56:19.455Z,15.17
2022-08-24T16:58:52.814Z,23.13
2022-08-24T17:01:21.791Z,22.93
2022-08-24T17:03:59.319Z,18.37
2022-08-24T17:06:28.849Z,15.50
2022-08-24T17:08:57.755Z,16.03
2022-08-24T17:11:27.066Z,19.10
2022-08-24T17:13:57.059Z,22.67
2022-08-24T17:16:26.104Z,19.80
2022-08-24T17:18:55.847Z,20.00
2022-08-24T17:21:24.878Z,15.93
2022-08-24T17:23:53.833Z,20.57
2022-08-24T17:26:22.449Z,22.20
2022-08-24T17:28:54.451Z,17.10
2022-08-24T17:31:25.728Z,17.90
2022-08-24T17:33:54.616Z,24.00
2022-08-24T17:36:25.916Z,16.50
2022-08-24T17:39:01.674Z,25.23
2022-08-24T17:41:30.351Z,25.73
2022-08-24T17:43:59.032Z,29.00
2022-08-24T17:46:30.315Z,34.20
2022-08-24T17:49:03.211Z,19.53
2022-08-24T17:51:31.911Z,24.20
2022-08-24T17:54:00.418Z,17.90
2022-08-24T17:56:31.473Z,19.67
2022-08-24T17:59:18.588Z,28.20
2022-08-24T18:01:52.931Z,25.90
2022-08-24T18:04:26.204Z,24.13
2022-08-24T18:06:56.943Z,23.50
2022-08-24T18:09:30.552Z,23.33
2022-08-24T18:12:05.338Z,19.67
2022-08-24T18:14:34.599Z,22.40
2022-08-24T18:17:07.774Z,16.83
2022-08-24T18:19:37.981Z,18.80
2022-08-24T18:22:06.602Z,23.67
2022-08-24T18:24:35.398Z,25.50
2022-08-24T18:27:10.053Z,22.97
2022-08-24T18:29:40.985Z,24.10
2022-08-24T18:32:13.693Z,23.67
2022-08-24T18:34:43.623Z,20.00
2022-08-24T18:37:13.282Z,21.03
2022-08-24T18:39:44.357Z,24.70
2022-08-24T18:42:14.064Z,27.23
2022-08-24T18:44:43.852Z,28.10
2022-08-24T18:47:14.187Z,23.20
2022-08-24T18:49:43.071Z,24.10
2022-08-24T18:52:14.423Z,20.23
2022-08-24T18:54:46.742Z,33.97
2022-08-24T18:57:15.736Z,26.17
2022-08-24T18:59:49.374Z,25.43
2022-08-24T19:02:31.533Z,26.33
2022-08-24T19:05:02.511Z,24.80
2022-08-24T19:07:33.131Z,40.00
2022-08-24T19:10:02.648Z,28.03
2022-08-24T19:12:33.635Z,27.60
2022-08-24T19:15:03.714Z,29.10
2022-08-24T19:17:33.770Z,25.27
2022-08-24T19:20:02.809Z,27.23
2022-08-24T19:22:46.723Z,33.10
2022-08-24T19:25:31.795Z,26.67
2022-08-24T19:28:13.211Z,29.93
2022-08-24T19:30:44.736Z,24.63
2022-08-24T19:33:25.448Z,39.07
2022-08-24T19:36:08.153Z,33.90
2022-08-24T19:39:11.534Z,30.97
2022-08-24T19:41:53.381Z,38.60
2022-08-24T19:44:40.142Z,26.30
2022-08-24T19:47:17.090Z,29.03
2022-08-24T19:49:51.308Z,25.57
2022-08-24T19:52:20.749Z,30.50
2022-08-24T19:54:50.352Z,30.47
2022-08-24T19:57:38.719Z,28.43
2022-08-24T20:00:24.867Z,28.13
2022-08-24T20:02:55.963Z,26.10
2022-08-24T20:05:29.818Z,31.30
2022-08-24T20:08:00.056Z,26.37
2022-08-24T20:10:31.272Z,29.60
2022-08-24T20:13:00.332Z,28.47
2022-08-24T20:15:29.749Z,38.53
2022-08-24T20:17:59.695Z,29.73
2022-08-24T20:20:35.285Z,31.53
2022-08-24T20:23:06.637Z,31.90
2022-08-24T20:25:36.932Z,28.10
2022-08-24T20:30:57.760Z,30.10
2022-08-24T20:33:28.082Z,33.93
2022-08-24T20:35:59.887Z,34.03
2022-08-24T20:38:32.040Z,31.03
2022-08-24T20:41:01.755Z,33.13
2022-08-24T20:43:32.024Z,42.97
2022-08-24T20:46:02.985Z,41.80
2022-08-24T20:49:30.191Z,40.50
2022-08-24T20:52:01.366Z,44.40
2022-08-24T20:54:50.866Z,35.03
2022-08-24T20:57:31.786Z,41.53
2022-08-24T21:00:15.900Z,33.53
2022-08-24T21:03:05.974Z,36.53
2022-08-24T21:05:48.515Z,32.90
2022-08-24T21:08:48.505Z,36.63
2022-08-24T21:11:25.438Z,29.50
2022-08-24T21:14:05.421Z,35.80
2022-08-24T21:16:37.936Z,32.57
2022-08-24T21:19:19.314Z,30.87
2022-08-24T21:21:56.080Z,39.70
2022-08-24T21:24:47.652Z,30.70
2022-08-24T21:27:31.161Z,29.50
2022-08-24T21:30:17.904Z,29.23
2022-08-24T21:33:10.516Z,29.33
2022-08-24T21:36:02.521Z,32.80
2022-08-24T21:38:57.123Z,32.20
2022-08-24T21:45:00.503Z,30.90
2022-08-24T21:47:38.309Z,29.63
2022-08-24T21:50:21.325Z,32.53
2022-08-24T21:52:58.575Z,30.17
2022-08-24T21:55:53.784Z,32.40
2022-08-24T21:58:33.146Z,36.53
2022-08-24T22:01:38.285Z,31.13
2022-08-24T22:04:29.870Z,42.30
2022-08-24T22:07:33.086Z,39.73
2022-08-24T22:10:13.297Z,33.63
2022-08-24T22:13:05.027Z,41.60
2022-08-24T22:15:58.489Z,31.20
2022-08-24T22:18:40.887Z,32.70
2022-08-24T22:21:24.532Z,30.73
2022-08-24T22:24:02.540Z,30.70
2022-08-24T22:26:46.334Z,31.03
2022-08-24T22:29:21.039Z,40.03
2022-08-24T22:31:51.538Z,37.27
2022-08-24T22:34:25.403Z,33.47
2022-08-24T22:37:09.018Z,28.67
2022-08-24T22:39:49.783Z,30.47
2022-08-24T22:42:19.130Z,30.70
2022-08-24T22:44:57.245Z,37.20
2022-08-24T22:47:38.080Z,31.47
2022-08-24T22:50:20.427Z,29.10
2022-08-24T22:53:06.938Z,38.40
2022-08-24T22:55:41.058Z,35.63
2022-08-24T22:58:26.237Z,32.20
2022-08-24T23:01:05.454Z,39.47
2022-08-24T23:03:58.538Z,34.60
2022-08-24T23:06:43.352Z,57.67
2022-08-24T23:09:36.655Z,33.63
2022-08-24T23:12:33.326Z,38.17
2022-08-24T23:15:36.513Z,35.50
2022-08-24T23:18:31.272Z,36.30
2022-08-24T23:21:17.561Z,44.87
2022-08-24T23:23:52.548Z,35.50
2022-08-24T23:26:33.531Z,41.13
2022-08-24T23:29:07.906Z,31.40
2022-08-24T23:31:39.257Z,32.40
2022-08-24T23:34:08.375Z,27.17
2022-08-24T23:36:40.816Z,36.33
2022-08-24T23:39:11.161Z,35.40
2022-08-24T23:41:46.130Z,36.63
2022-08-24T23:44:18.479Z,33.27
2022-08-24T23:46:48.241Z,35.87
2022-08-24T23:49:20.129Z,36.43
2022-08-24T23:51:52.659Z,33.67
2022-08-24T23:54:22.209Z,39.00
2022-08-24T23:56:54.942Z,33.03
2022-08-24T23:59:27.040Z,37.93
